Nearby METAR Reports

EGBB - Birmingham Airport
Distance: SSW 46mi, 74km
Updated: 21/02/2018 22:50
Mostly cloudy
Mostly cloudy
 Wind from NNE
Wind: NNE 5 mph , 7 km/h
Temperature: 4°C
Wind Chill: 2°C
Dew Point: 3°C
Humidity: 93%
Barometer: 1026 hPa
Clouds: Mostly cloudy
Visibility: 6 miles , 10 km
Cloud details: Few Clouds 366 m
Mostly cloudy 792 m
2018/02/21 22:50 EGBB 212250Z 03004KT 9999 FEW012 BKN026 04/03 Q1026
EGBE - Coventry Airport
Distance: S 49mi, 79km
Updated: 18/07/2017 14:50
NOT Current
Clear
Clear
 Wind from E
Wind: E 16 mph , 26 km/h
Temperature: 27°C
Heat Index: 27°C
Dew Point: 14°C
Humidity: 45%
Barometer: 1015 hPa
Summary: Clear
Visibility: greater than 7 miles , 10 km
2017/07/18 13:50 EGBE 181350Z 10014KT 060V120 CAVOK 27/14 Q1015
EGCC - Manchester International
Distance: WNW 45mi, 72km
Updated: 21/02/2018 22:50
Clear
Clear
 Wind from E
Wind: E 2 mph , 4 km/h
Temperature: 3°C
Dew Point: 1°C
Humidity: 87%
Barometer: 1026 hPa
Clouds: Clear
Visibility: 6 miles , 10 km
2018/02/21 22:50 EGCC 212250Z AUTO 10002KT 9999 NCD 03/01 Q1026 NOSIG
 
EGCN - Doncaster Sheffield
Distance: NNE 31mi, 50km
Updated: 21/02/2018 22:50
Partly cloudy
Partly cloudy
 Wind from NNW
Wind: NNW 3 mph , 6 km/h
Temperature: 4°C
Dew Point: 4°C
Humidity: 100%
Barometer: 1028 hPa
Clouds: Partly cloudy
Visibility: 6 miles , 10 km
Cloud details: Partly cloudy 823 m
2018/02/21 22:50 EGCN 212250Z 34003KT 9999 SCT027 04/04 Q1028
EGNX - East Midlands
Distance: S 18mi, 28km
Updated: 21/02/2018 22:50
Mostly cloudy
Mostly cloudy
 Wind from ENE
Wind: ENE 7 mph , 11 km/h
Temperature: 4°C
Wind Chill: 1°C
Dew Point: 2°C
Humidity: 87%
Barometer: 1026 hPa
Clouds: Mostly cloudy
Visibility: 6 miles , 10 km
Cloud details: Few Clouds 427 m
Mostly cloudy 640 m
2018/02/21 22:50 EGNX 212250Z 07006KT 9999 FEW014 BKN021 04/02 Q1026
EGXC - Coningsby RAF
Distance: E 47mi, 75km
Updated: 21/02/2018 22:50
Mostly cloudy
Mostly cloudy
 Wind from NE
Wind: NE 6 mph , 9 km/h
Temperature: 4°C
Wind Chill: 2°C
Dew Point: 1°C
Humidity: 81%
Barometer: 1027 hPa
Clouds: Mostly cloudy
Visibility: 6 miles , 10 km
Cloud details: Few Clouds 610 m
Mostly cloudy 914 m
2018/02/21 22:50 EGXC 212250Z 04005KT 9999 FEW020 BKN030 04/01 Q1027 BLU
 
EGXP - Scampton RAF
Distance: ENE 35mi, 56km
Updated: 21/02/2018 21:50
Partly cloudy
Partly cloudy
 Wind from NE
Wind: NE 6 mph , 9 km/h
Temperature: 2°C
Wind Chill: -1°C
Dew Point: 2°C
Humidity: 100%
Barometer: 1027 hPa
Clouds: Partly cloudy
Visibility: 6 miles , 10 km
Cloud details: Partly cloudy 853 m
2018/02/21 21:50 EGXP 212150Z AUTO 05005KT 9999 // SCT028/// 02/02 Q1027
EGXS - Swinderby RAF
Distance: ENE 26mi, 42km
Updated: 21/02/2018 21:50
Partly cloudy
Partly cloudy
 Wind from NE
Wind: NE 14 mph , 22 km/h
Temperature: 5°C
Wind Chill: 1°C
Dew Point: 2°C
Humidity: 81%
Barometer: 1027 hPa
Clouds: Partly cloudy
Visibility: 6 miles , 10 km
Cloud details: Few Clouds 427 m
Partly cloudy 975 m
2018/02/21 21:50 EGXS 212150Z AUTO 05012KT 9999 // FEW014/// SCT032/// 05/02 Q1027
EGXT - Wittering RAF
Distance: SE 47mi, 75km
Updated: 21/02/2018 21:50
Overcast
Overcast
 Wind from NE
Wind: NE 6 mph , 9 km/h
Temperature: 4°C
Wind Chill: 2°C
Dew Point: 2°C
Humidity: 87%
Barometer: 1026 hPa
Clouds: Overcast
Visibility: 6 miles , 10 km
Cloud details: Overcast 823 m
2018/02/21 21:50 EGXT 212150Z AUTO 05005KT 9999 OVC027/// 04/02 Q1026
 
EGXW - Waddington RAF
Distance: ENE 33mi, 53km
Updated: 21/02/2018 22:50
Few Clouds
Few Clouds
 Wind from NE
Wind: NE 6 mph , 9 km/h
Temperature: 3°C
Wind Chill: 0°C
Dew Point: 2°C
Humidity: 93%
Barometer: 1026 hPa
Clouds: Few Clouds
Visibility: 6 miles , 10 km
Cloud details: Few Clouds 762 m
2018/02/21 22:50 EGXW 212250Z 04005KT 9999 FEW025 03/02 Q1026 BLU
EGYD - Cranwell RAF
Distance: E 33mi, 53km
Updated: 21/02/2018 21:50
Overcast
Overcast
 Wind from ENE
Wind: ENE 8 mph , 13 km/h
Temperature: 4°C
Wind Chill: 1°C
Dew Point: 0°C
Humidity: 75%
Barometer: 1027 hPa
Clouds: Overcast
Visibility: 6 miles , 10 km
Cloud details: Overcast 823 m
2018/02/21 21:50 EGYD 212150Z AUTO 06007KT 9999 // OVC027/// 04/00 Q1027
EGYE - Barkston Heath RAF
Distance: ESE 31mi, 50km
Updated: 21/02/2018 13:50
NOT Current
Mostly cloudy
Mostly cloudy
 Wind from NNE
Wind: NNE 6 mph , 9 km/h
Barometer: 1027 hPa
Clouds: Mostly cloudy
Visibility: 6 miles , 10 km
Cloud details: Few Clouds 549 m
Mostly cloudy 1067 m
2018/02/21 13:50 EGYE 211350Z 03005KT 9999 FEW018 BKN035 ///// Q1027 BLU